PWSweather.com
Personal Weather Stations
Station Observations
KKYCRABO2
Cedar Creek Lake 840 Ky. Hwy. 39 N, Crab Orchard, KY 40419

Cedar Creek Lake 840 Ky. Hwy. 39 NCrab Orchard, KY 40419

Lat: 37.4736234544238, Lon: -84.5120286941528

Elevation: 952

Station Type: TYCON Power TP1080WC Pro

http://kbweather.net/

Latest ConditionsUpdated 6:00:02 PM EDT Friday, Aug 29, 2014
Currently Today's Max Today's Min Today's Average
Temperature 98.8°F37.1°C 99.1°F37.3°C 33.3°F0.7°C 80.3°F26.8°C
Dew Point 82.6°F28.1°C 88.2°F31.2°C 33.0°F0.6°C 75.6°F24.2°C
Winds 0.7 mph NNE1.1 kmh NNE 4.5 mph SE7.2 kmh SE - 0.5 mph 0.8 kmh
Wind Gusts 1.6 mph2.6 kmh 122.0 mph196.3 kmh - -
Humidity 60% 99% 59% 87%
Pressure 29.53 in1000.0 mb 29.78 in1008.5 mb 29.53 in1000.0 mb -
Hour Temp Dew Point Humidity Winds Wind Gusts Pressure Precip Precip Rate Daily Precip Total
06:00 PM 98.8°F37.1°C 82.6°F28.1°C 60% 0.7 mph NNE1.1 kmh NNE 1.6 mph2.6 kmh 29.53 in1000.0 mb 0.00 in0.0 mm 0.00 in/hr0.0 mm/hr 60.70 in1541.8 mm
05:55 PM 98.8°F37.1°C 83.1°F28.4°C 61% Calm Calm 0.7 mph1.1 kmh 29.53 in1000.0 mb 0.00 in0.0 mm 0.00 in/hr0.0 mm/hr 60.70 in1541.8 mm
05:50 PM 98.1°F36.7°C 81.4°F27.4°C 59% Calm Calm 1.6 mph2.6 kmh 29.53 in1000.0 mb 0.00 in0.0 mm 0.00 in/hr0.0 mm/hr 60.70 in1541.8 mm
05:45 PM 98.1°F36.7°C 81.4°F27.4°C 59% Calm Calm 1.6 mph2.6 kmh 29.53 in1000.0 mb 0.00 in0.0 mm 0.00 in/hr0.0 mm/hr 60.70 in1541.8 mm
05:40 PM 98.2°F36.8°C 82.1°F27.8°C 60% Calm Calm 0.7 mph1.1 kmh 29.53 in1000.0 mb 0.00 in0.0 mm 0.00 in/hr0.0 mm/hr 60.70 in1541.8 mm
05:35 PM 97.7°F36.5°C 82.1°F27.8°C 61% Calm Calm 3.1 mph5.0 kmh 29.53 in1000.0 mb 0.00 in0.0 mm 0.00 in/hr0.0 mm/hr 60.70 in1541.8 mm
05:30 PM 97.2°F36.2°C 81.6°F27.6°C 61% Calm Calm 3.1 mph5.0 kmh 29.53 in1000.0 mb 0.00 in0.0 mm 0.00 in/hr0.0 mm/hr 60.70 in1541.8 mm
05:25 PM 97.0°F36.1°C 80.9°F27.2°C 60% 0.7 mph NE1.1 kmh NE 3.1 mph5.0 kmh 29.53 in1000.0 mb 0.00 in0.0 mm 0.00 in/hr0.0 mm/hr 60.70 in1541.8 mm
05:20 PM 97.0°F36.1°C 80.9°F27.2°C 60% 0.7 mph SSE1.1 kmh SSE 2.2 mph3.5 kmh 29.53 in1000.0 mb 0.00 in0.0 mm 0.00 in/hr0.0 mm/hr 60.70 in1541.8 mm
05:15 PM 97.7°F36.5°C 81.6°F27.6°C 60% Calm Calm 2.2 mph3.5 kmh 29.54 in1000.3 mb 0.00 in0.0 mm 0.00 in/hr0.0 mm/hr 60.70 in1541.8 mm
05:10 PM 97.7°F36.5°C 81.6°F27.6°C 60% Calm Calm 2.2 mph3.5 kmh 29.54 in1000.3 mb 0.00 in0.0 mm 0.00 in/hr0.0 mm/hr 60.70 in1541.8 mm
05:05 PM 97.5°F36.4°C 81.9°F27.7°C 61% 0.7 mph NW1.1 kmh NW 3.8 mph6.1 kmh 29.54 in1000.3 mb 0.00 in0.0 mm 0.00 in/hr0.0 mm/hr 60.70 in1541.8 mm
05:00 PM 97.5°F36.4°C 81.9°F27.7°C 61% 0.7 mph N1.1 kmh N 3.8 mph6.1 kmh 29.54 in1000.3 mb 0.00 in0.0 mm 0.00 in/hr0.0 mm/hr 60.70 in1541.8 mm
04:55 PM 97.7°F36.5°C 82.1°F27.8°C 61% 1.6 mph N2.6 kmh N 3.8 mph6.1 kmh 29.54 in1000.3 mb 0.00 in0.0 mm 0.00 in/hr0.0 mm/hr 60.70 in1541.8 mm
04:50 PM 97.2°F36.2°C 81.6°F27.6°C 61% Calm Calm 2.2 mph3.5 kmh 29.55 in1000.7 mb 0.00 in0.0 mm 0.00 in/hr0.0 mm/hr 60.70 in1541.8 mm
04:45 PM 97.2°F36.2°C 81.6°F27.6°C 61% Calm Calm 3.1 mph5.0 kmh 29.55 in1000.7 mb 0.00 in0.0 mm 0.00 in/hr0.0 mm/hr 60.70 in1541.8 mm
04:40 PM 97.5°F36.4°C 81.9°F27.7°C 61% 0.7 mph N1.1 kmh N 3.1 mph5.0 kmh 29.55 in1000.7 mb 0.00 in0.0 mm 0.00 in/hr0.0 mm/hr 60.70 in1541.8 mm
04:35 PM 98.2°F36.8°C 81.6°F27.6°C 59% 1.6 mph N2.6 kmh N 3.8 mph6.1 kmh 29.55 in1000.7 mb 0.00 in0.0 mm 0.00 in/hr0.0 mm/hr 60.70 in1541.8 mm
04:30 PM 98.2°F36.8°C 81.6°F27.6°C 59% 1.6 mph N2.6 kmh N 3.8 mph6.1 kmh 29.55 in1000.7 mb 0.00 in0.0 mm 0.00 in/hr0.0 mm/hr 60.70 in1541.8 mm
04:25 PM 98.8°F37.1°C 82.6°F28.1°C 60% 1.6 mph NNE2.6 kmh NNE 3.8 mph6.1 kmh 29.55 in1000.7 mb 0.00 in0.0 mm 0.00 in/hr0.0 mm/hr 60.70 in1541.8 mm
04:20 PM 98.8°F37.1°C 84.6°F29.2°C 64% Calm Calm 2.2 mph3.5 kmh 29.55 in1000.7 mb 0.00 in0.0 mm 0.00 in/hr0.0 mm/hr 60.70 in1541.8 mm
04:15 PM 98.1°F36.7°C 84.4°F29.1°C 65% Calm Calm 2.2 mph3.5 kmh 29.55 in1000.7 mb 0.00 in0.0 mm 0.00 in/hr0.0 mm/hr 60.70 in1541.8 mm
04:10 PM 98.1°F36.7°C 83.9°F28.8°C 64% Calm Calm 3.1 mph5.0 kmh 29.55 in1000.7 mb 0.00 in0.0 mm 0.00 in/hr0.0 mm/hr 60.70 in1541.8 mm
04:05 PM 98.1°F36.7°C 84.4°F29.1°C 65% Calm Calm 3.1 mph5.0 kmh 29.56 in1001.0 mb 0.00 in0.0 mm 0.00 in/hr0.0 mm/hr 60.70 in1541.8 mm
04:00 PM 97.7°F36.5°C 84.5°F29.2°C 66% 0.7 mph N1.1 kmh N 3.8 mph6.1 kmh 29.56 in1001.0 mb 0.00 in0.0 mm 0.00 in/hr0.0 mm/hr 60.70 in1541.8 mm
03:55 PM 97.3°F36.3°C 85.1°F29.5°C 68% 0.7 mph NNW1.1 kmh NNW 6.0 mph9.7 kmh 29.56 in1001.0 mb 0.00 in0.0 mm 0.00 in/hr0.0 mm/hr 60.70 in1541.8 mm
03:50 PM 96.8°F36.0°C 83.7°F28.7°C 66% 1.6 mph N2.6 kmh N 6.0 mph9.7 kmh 29.57 in1001.4 mb 0.00 in0.0 mm 0.00 in/hr0.0 mm/hr 60.70 in1541.8 mm
03:45 PM 97.2°F36.2°C 83.5°F28.6°C 65% 3.1 mph N5.0 kmh N 6.0 mph9.7 kmh 29.57 in1001.4 mb 0.00 in0.0 mm 0.00 in/hr0.0 mm/hr 60.70 in1541.8 mm
03:40 PM 96.6°F35.9°C 85.3°F29.6°C 70% Calm Calm 3.1 mph5.0 kmh 29.57 in1001.4 mb 0.00 in0.0 mm 0.00 in/hr0.0 mm/hr 60.70 in1541.8 mm
03:35 PM 96.1°F35.6°C 84.8°F29.3°C 70% 0.7 mph N1.1 kmh N 3.8 mph6.1 kmh 29.57 in1001.4 mb 0.00 in0.0 mm 0.00 in/hr0.0 mm/hr 60.70 in1541.8 mm
03:30 PM 96.1°F35.6°C 84.4°F29.1°C 69% 1.6 mph N2.6 kmh N 5.4 mph8.7 kmh 29.57 in1001.4 mb 0.00 in0.0 mm 0.00 in/hr0.0 mm/hr 60.70 in1541.8 mm
03:25 PM 96.3°F35.7°C 84.1°F28.9°C 68% 1.6 mph NNE2.6 kmh NNE 5.4 mph8.7 kmh 29.58 in1001.7 mb 0.00 in0.0 mm 0.00 in/hr0.0 mm/hr 60.70 in1541.8 mm
03:20 PM 97.2°F36.2°C 84.0°F28.9°C 66% 3.1 mph NE5.0 kmh NE 5.4 mph8.7 kmh 29.58 in1001.7 mb 0.00 in0.0 mm 0.00 in/hr0.0 mm/hr 60.70 in1541.8 mm
03:15 PM 98.1°F36.7°C 84.4°F29.1°C 65% Calm Calm 3.8 mph6.1 kmh 29.58 in1001.7 mb 0.00 in0.0 mm 0.00 in/hr0.0 mm/hr 60.70 in1541.8 mm
03:10 PM 98.8°F37.1°C 84.1°F28.9°C 63% Calm Calm 3.8 mph6.1 kmh 29.59 in1002.0 mb 0.00 in0.0 mm 0.00 in/hr0.0 mm/hr 60.70 in1541.8 mm
03:05 PM 99.1°F37.3°C 85.4°F29.7°C 65% Calm Calm 3.8 mph6.1 kmh 29.59 in1002.0 mb 0.00 in0.0 mm 0.00 in/hr0.0 mm/hr 60.70 in1541.8 mm
03:00 PM 98.8°F37.1°C 85.1°F29.5°C 65% 0.7 mph NW1.1 kmh NW 3.8 mph6.1 kmh 29.59 in1002.0 mb 0.00 in0.0 mm 0.00 in/hr0.0 mm/hr 60.70 in1541.8 mm
02:55 PM 98.6°F37.0°C 84.9°F29.4°C 65% 1.6 mph NW2.6 kmh NW 3.8 mph6.1 kmh 29.60 in1002.4 mb 0.00 in0.0 mm 0.00 in/hr0.0 mm/hr 60.70 in1541.8 mm
02:50 PM 97.7°F36.5°C 85.5°F29.7°C 68% Calm Calm 4.5 mph7.2 kmh 29.60 in1002.4 mb 0.00 in0.0 mm 0.00 in/hr0.0 mm/hr 60.70 in1541.8 mm
02:45 PM 97.7°F36.5°C 85.5°F29.7°C 68% Calm Calm 4.5 mph7.2 kmh 29.60 in1002.4 mb 0.00 in0.0 mm 0.00 in/hr0.0 mm/hr 60.70 in1541.8 mm
02:40 PM 97.7°F36.5°C 84.0°F28.9°C 65% 1.6 mph E2.6 kmh E 4.5 mph7.2 kmh 29.60 in1002.4 mb 0.00 in0.0 mm 0.00 in/hr0.0 mm/hr 60.70 in1541.8 mm
02:35 PM 97.0°F36.1°C 84.8°F29.3°C 68% 0.7 mph ESE1.1 kmh ESE 3.1 mph5.0 kmh 29.61 in1002.7 mb 0.00 in0.0 mm 0.00 in/hr0.0 mm/hr 60.70 in1541.8 mm
02:30 PM 97.2°F36.2°C 84.5°F29.2°C 67% 1.6 mph NE2.6 kmh NE 3.1 mph5.0 kmh 29.61 in1002.7 mb 0.00 in0.0 mm 0.00 in/hr0.0 mm/hr 60.70 in1541.8 mm
02:25 PM 98.1°F36.7°C 86.7°F30.4°C 70% Calm Calm 3.1 mph5.0 kmh 29.62 in1003.0 mb 0.00 in0.0 mm 0.00 in/hr0.0 mm/hr 60.70 in1541.8 mm
02:20 PM 97.7°F36.5°C 85.5°F29.7°C 68% 0.7 mph NNE1.1 kmh NNE 3.1 mph5.0 kmh 29.62 in1003.0 mb 0.00 in0.0 mm 0.00 in/hr0.0 mm/hr 60.70 in1541.8 mm
02:15 PM 97.7°F36.5°C 85.9°F29.9°C 69% 0.7 mph SE1.1 kmh SE 3.1 mph5.0 kmh 29.62 in1003.0 mb 0.00 in0.0 mm 0.00 in/hr0.0 mm/hr 60.70 in1541.8 mm
02:10 PM 97.5°F36.4°C 84.8°F29.3°C 67% 0.7 mph SSE1.1 kmh SSE 3.1 mph5.0 kmh 29.62 in1003.0 mb 0.00 in0.0 mm 0.00 in/hr0.0 mm/hr 60.70 in1541.8 mm
02:05 PM 97.7°F36.5°C 85.0°F29.4°C 67% 1.6 mph NNW2.6 kmh NNW 3.1 mph5.0 kmh 29.62 in1003.0 mb 0.00 in0.0 mm 0.00 in/hr0.0 mm/hr 60.70 in1541.8 mm
02:00 PM 97.2°F36.2°C 85.8°F29.9°C 70% Calm Calm 3.8 mph6.1 kmh 29.62 in1003.0 mb 0.00 in0.0 mm 0.00 in/hr0.0 mm/hr 60.70 in1541.8 mm
01:55 PM 97.3°F36.3°C 85.6°F29.8°C 69% Calm Calm 3.8 mph6.1 kmh 29.63 in1003.4 mb 0.00 in0.0 mm 0.00 in/hr0.0 mm/hr 60.70 in1541.8 mm
01:50 PM 97.5°F36.4°C 84.4°F29.1°C 66% 1.6 mph N2.6 kmh N 3.8 mph6.1 kmh 29.63 in1003.4 mb 0.00 in0.0 mm 0.00 in/hr0.0 mm/hr 60.70 in1541.8 mm
01:45 PM 97.7°F36.5°C 85.5°F29.7°C 68% 0.7 mph N1.1 kmh N 3.1 mph5.0 kmh 29.63 in1003.4 mb 0.00 in0.0 mm 0.00 in/hr0.0 mm/hr 60.70 in1541.8 mm
01:40 PM 97.7°F36.5°C 87.3°F30.7°C 72% Calm Calm 2.2 mph3.5 kmh 29.64 in1003.7 mb 0.00 in0.0 mm 0.00 in/hr0.0 mm/hr 60.70 in1541.8 mm
01:35 PM 96.1°F35.6°C 86.1°F30.1°C 73% Calm Calm 3.1 mph5.0 kmh 29.64 in1003.7 mb 0.00 in0.0 mm 0.00 in/hr0.0 mm/hr 60.70 in1541.8 mm
01:30 PM 97.2°F36.2°C 86.7°F30.4°C 72% Calm Calm 3.8 mph6.1 kmh 29.64 in1003.7 mb 0.00 in0.0 mm 0.00 in/hr0.0 mm/hr 60.70 in1541.8 mm
01:25 PM 97.3°F36.3°C 86.9°F30.5°C 72% Calm Calm 3.8 mph6.1 kmh 29.65 in1004.1 mb 0.00 in0.0 mm 0.00 in/hr0.0 mm/hr 60.70 in1541.8 mm
01:20 PM 98.1°F36.7°C 87.6°F30.9°C 72% Calm Calm 2.2 mph3.5 kmh 29.65 in1004.1 mb 0.00 in0.0 mm 0.00 in/hr0.0 mm/hr 60.70 in1541.8 mm
01:15 PM 96.8°F36.0°C 87.7°F30.9°C 75% Calm Calm 3.8 mph6.1 kmh 29.65 in1004.1 mb 0.00 in0.0 mm 0.00 in/hr0.0 mm/hr 60.70 in1541.8 mm
01:10 PM 96.1°F35.6°C 86.1°F30.1°C 73% 0.7 mph NE1.1 kmh NE 3.8 mph6.1 kmh 29.65 in1004.1 mb 0.00 in0.0 mm 0.00 in/hr0.0 mm/hr 60.70 in1541.8 mm
01:05 PM 95.4°F35.2°C 85.9°F29.9°C 74% Calm Calm 2.2 mph3.5 kmh 29.65 in1004.1 mb 0.00 in0.0 mm 0.00 in/hr0.0 mm/hr 60.70 in1541.8 mm
01:00 PM 95.4°F35.2°C 85.9°F29.9°C 74% Calm Calm 3.1 mph5.0 kmh 29.66 in1004.4 mb 0.00 in0.0 mm 0.00 in/hr0.0 mm/hr 60.70 in1541.8 mm
12:55 PM 94.3°F34.6°C 85.7°F29.8°C 76% Calm Calm 4.5 mph7.2 kmh 29.66 in1004.4 mb 0.00 in0.0 mm 0.00 in/hr0.0 mm/hr 60.70 in1541.8 mm
12:50 PM 94.1°F34.5°C 85.9°F29.9°C 77% Calm Calm 4.5 mph7.2 kmh 29.67 in1004.7 mb 0.00 in0.0 mm 0.00 in/hr0.0 mm/hr 60.70 in1541.8 mm
12:45 PM 94.5°F34.7°C 85.8°F29.9°C 76% 1.6 mph N2.6 kmh N 4.5 mph7.2 kmh 29.67 in1004.7 mb 0.00 in0.0 mm 0.00 in/hr0.0 mm/hr 60.70 in1541.8 mm
12:40 PM 95.2°F35.1°C 86.1°F30.1°C 75% 1.6 mph NNW2.6 kmh NNW 3.1 mph5.0 kmh 29.67 in1004.7 mb 0.00 in0.0 mm 0.00 in/hr0.0 mm/hr 60.70 in1541.8 mm
12:35 PM 95.0°F35.0°C 86.4°F30.2°C 76% 1.6 mph E2.6 kmh E 4.5 mph7.2 kmh 29.68 in1005.1 mb 0.00 in0.0 mm 0.00 in/hr0.0 mm/hr 60.70 in1541.8 mm
12:30 PM 94.6°F34.8°C 87.2°F30.7°C 79% Calm Calm 4.5 mph7.2 kmh 29.68 in1005.1 mb 0.00 in0.0 mm 0.00 in/hr0.0 mm/hr 60.70 in1541.8 mm
12:25 PM 93.7°F34.3°C 86.7°F30.4°C 80% Calm Calm 3.1 mph5.0 kmh 29.68 in1005.1 mb 0.00 in0.0 mm 0.00 in/hr0.0 mm/hr 60.70 in1541.8 mm
12:20 PM 93.7°F34.3°C 86.3°F30.2°C 79% Calm Calm 3.8 mph6.1 kmh 29.69 in1005.4 mb 0.00 in0.0 mm 0.00 in/hr0.0 mm/hr 60.70 in1541.8 mm
12:15 PM 94.8°F34.9°C 86.6°F30.3°C 77% Calm Calm 3.8 mph6.1 kmh 29.70 in1005.8 mb 0.00 in0.0 mm 0.00 in/hr0.0 mm/hr 60.70 in1541.8 mm
12:10 PM 95.0°F35.0°C 86.4°F30.2°C 76% 1.6 mph WSW2.6 kmh WSW 3.8 mph6.1 kmh 29.70 in1005.8 mb 0.00 in0.0 mm 0.00 in/hr0.0 mm/hr 60.70 in1541.8 mm
12:05 PM 95.5°F35.3°C 88.1°F31.2°C 79% Calm Calm 2.2 mph3.5 kmh 29.70 in1005.8 mb 0.00 in0.0 mm 0.00 in/hr0.0 mm/hr 60.70 in1541.8 mm
12:00 PM 95.2°F35.1°C 87.3°F30.7°C 78% Calm Calm 2.2 mph3.5 kmh 29.70 in1005.8 mb 0.00 in0.0 mm 0.00 in/hr0.0 mm/hr 60.70 in1541.8 mm
11:55 AM 95.2°F35.1°C 87.3°F30.7°C 78% 0.7 mph NNW1.1 kmh NNW 2.2 mph3.5 kmh 29.70 in1005.8 mb 0.00 in0.0 mm 0.00 in/hr0.0 mm/hr 60.70 in1541.8 mm
11:50 AM 95.0°F35.0°C 88.0°F31.1°C 80% Calm Calm 2.2 mph3.5 kmh 29.70 in1005.8 mb 0.00 in0.0 mm 0.00 in/hr0.0 mm/hr 60.70 in1541.8 mm
11:45 AM 95.2°F35.1°C 88.1°F31.2°C 80% Calm Calm 2.2 mph3.5 kmh 29.71 in1006.1 mb 0.00 in0.0 mm 0.00 in/hr0.0 mm/hr 60.70 in1541.8 mm
11:40 AM 94.8°F34.9°C 88.2°F31.2°C 81% Calm Calm 5.4 mph8.7 kmh 29.71 in1006.1 mb 0.00 in0.0 mm 0.00 in/hr0.0 mm/hr 60.70 in1541.8 mm
11:35 AM 94.3°F34.6°C 87.7°F30.9°C 81% 0.7 mph SE1.1 kmh SE 5.4 mph8.7 kmh 29.71 in1006.1 mb 0.00 in0.0 mm 0.00 in/hr0.0 mm/hr 60.70 in1541.8 mm
11:30 AM 93.7°F34.3°C 86.7°F30.4°C 80% 3.1 mph SE5.0 kmh SE 5.4 mph8.7 kmh 29.72 in1006.4 mb 0.00 in0.0 mm 0.00 in/hr0.0 mm/hr 60.70 in1541.8 mm
11:25 AM 92.8°F33.8°C 88.1°F31.2°C 86% Calm Calm 5.4 mph8.7 kmh 29.72 in1006.4 mb 0.00 in0.0 mm 0.00 in/hr0.0 mm/hr 60.70 in1541.8 mm
11:20 AM 91.4°F33.0°C 86.7°F30.4°C 86% 1.6 mph SW2.6 kmh SW 5.4 mph8.7 kmh 29.72 in1006.4 mb 0.00 in0.0 mm 0.00 in/hr0.0 mm/hr 60.70 in1541.8 mm
11:15 AM 91.6°F33.1°C 85.8°F29.9°C 83% 3.8 mph SSE6.1 kmh SSE 5.4 mph8.7 kmh 29.73 in1006.8 mb 0.00 in0.0 mm 0.00 in/hr0.0 mm/hr 60.70 in1541.8 mm
11:10 AM 91.2°F32.9°C 86.5°F30.3°C 86% 0.7 mph NE1.1 kmh NE 4.5 mph7.2 kmh 29.73 in1006.8 mb 0.00 in0.0 mm 0.00 in/hr0.0 mm/hr 60.70 in1541.8 mm
11:05 AM 91.6°F33.1°C 86.5°F30.3°C 85% 1.6 mph NNW2.6 kmh NNW 3.1 mph5.0 kmh 29.73 in1006.8 mb 0.00 in0.0 mm 0.00 in/hr0.0 mm/hr 60.70 in1541.8 mm
11:00 AM 91.2°F32.9°C 88.0°F31.1°C 90% Calm Calm 2.2 mph3.5 kmh 29.73 in1006.8 mb 0.00 in0.0 mm 0.00 in/hr0.0 mm/hr 60.70 in1541.8 mm
10:55 AM 89.6°F32.0°C 87.1°F30.6°C 92% Calm Calm 5.4 mph8.7 kmh 29.74 in1007.1 mb 0.00 in0.0 mm 0.00 in/hr0.0 mm/hr 60.70 in1541.8 mm
10:50 AM 89.2°F31.8°C 85.7°F29.8°C 89% 0.7 mph E1.1 kmh E 5.4 mph8.7 kmh 29.74 in1007.1 mb 0.00 in0.0 mm 0.00 in/hr0.0 mm/hr 60.70 in1541.8 mm
10:45 AM 88.7°F31.5°C 85.8°F29.9°C 91% 1.6 mph E2.6 kmh E 5.4 mph8.7 kmh 29.74 in1007.1 mb 12.09 in307.1 mm 145.08 in/hr3685.0 mm/hr 60.70 in1541.8 mm
10:40 AM 88.3°F31.3°C 85.1°F29.5°C 90% 2.2 mph NE3.5 kmh NE 3.8 mph6.1 kmh 29.75 in1007.5 mb 0.00 in0.0 mm 0.00 in/hr0.0 mm/hr 48.61 in1234.7 mm
10:35 AM 87.1°F30.6°C 84.9°F29.4°C 93% 0.7 mph S1.1 kmh S 4.5 mph7.2 kmh 29.75 in1007.5 mb 0.00 in0.0 mm 0.00 in/hr0.0 mm/hr 48.61 in1234.7 mm
10:30 AM 86.2°F30.1°C 85.0°F29.4°C 96% 0.7 mph SE1.1 kmh SE 6.0 mph9.7 kmh 29.75 in1007.5 mb 0.00 in0.0 mm 0.00 in/hr0.0 mm/hr 48.61 in1234.7 mm
10:25 AM 85.8°F29.9°C 84.0°F28.9°C 94% 2.2 mph SE3.5 kmh SE 6.0 mph9.7 kmh 29.75 in1007.5 mb 0.00 in0.0 mm 0.00 in/hr0.0 mm/hr 48.61 in1234.7 mm
10:20 AM 85.1°F29.5°C 84.2°F29.0°C 97% 0.7 mph SE1.1 kmh SE 3.8 mph6.1 kmh 29.75 in1007.5 mb 0.00 in0.0 mm 0.00 in/hr0.0 mm/hr 48.61 in1234.7 mm
10:15 AM 85.1°F29.5°C 84.2°F29.0°C 97% 0.7 mph SE1.1 kmh SE 3.8 mph6.1 kmh 29.76 in1007.8 mb 0.00 in0.0 mm 0.00 in/hr0.0 mm/hr 48.61 in1234.7 mm
10:10 AM 83.8°F28.8°C 83.6°F28.7°C 99% 1.6 mph E2.6 kmh E 6.0 mph9.7 kmh 29.76 in1007.8 mb 0.00 in0.0 mm 0.00 in/hr0.0 mm/hr 48.61 in1234.7 mm
10:05 AM 83.1°F28.4°C 82.9°F28.3°C 99% 1.6 mph ESE2.6 kmh ESE 6.0 mph9.7 kmh 29.76 in1007.8 mb 0.00 in0.0 mm 0.00 in/hr0.0 mm/hr 48.61 in1234.7 mm
10:00 AM 82.9°F28.3°C 82.7°F28.2°C 99% 3.1 mph SE5.0 kmh SE 4.5 mph7.2 kmh 29.76 in1007.8 mb 0.00 in0.0 mm 0.00 in/hr0.0 mm/hr 48.61 in1234.7 mm
09:55 AM 81.7°F27.6°C 81.5°F27.5°C 99% 2.2 mph E3.5 kmh E 4.5 mph7.2 kmh 29.77 in1008.1 mb 0.00 in0.0 mm 0.00 in/hr0.0 mm/hr 48.61 in1234.7 mm
09:50 AM 81.0°F27.2°C 80.7°F27.1°C 99% 1.6 mph N2.6 kmh N 4.5 mph7.2 kmh 29.77 in1008.1 mb 0.00 in0.0 mm 0.00 in/hr0.0 mm/hr 48.61 in1234.7 mm
09:45 AM 79.7°F26.5°C 79.5°F26.4°C 99% 2.2 mph SE3.5 kmh SE 4.5 mph7.2 kmh 29.77 in1008.1 mb 0.00 in0.0 mm 0.00 in/hr0.0 mm/hr 48.61 in1234.7 mm
09:40 AM 78.8°F26.0°C 78.6°F25.9°C 99% 3.1 mph SE5.0 kmh SE 4.5 mph7.2 kmh 29.77 in1008.1 mb 0.00 in0.0 mm 0.00 in/hr0.0 mm/hr 48.61 in1234.7 mm
09:35 AM 76.8°F24.9°C 76.6°F24.8°C 99% 2.2 mph SE3.5 kmh SE 5.4 mph8.7 kmh 29.78 in1008.5 mb 0.00 in0.0 mm 0.00 in/hr0.0 mm/hr 48.61 in1234.7 mm
09:30 AM 74.7°F23.7°C 74.4°F23.6°C 99% 2.2 mph SE3.5 kmh SE 7.6 mph12.2 kmh 29.78 in1008.5 mb 0.00 in0.0 mm 0.00 in/hr0.0 mm/hr 48.61 in1234.7 mm
09:25 AM 74.3°F23.5°C 74.1°F23.4°C 99% 2.2 mph SE3.5 kmh SE 7.6 mph12.2 kmh 29.78 in1008.5 mb 0.00 in0.0 mm 0.00 in/hr0.0 mm/hr 48.61 in1234.7 mm
09:20 AM 74.1°F23.4°C 73.9°F23.3°C 99% 4.5 mph SE7.2 kmh SE 7.6 mph12.2 kmh 29.78 in1008.5 mb 0.00 in0.0 mm 0.00 in/hr0.0 mm/hr 48.61 in1234.7 mm
09:15 AM 33.3°F0.7°C 33.0°F0.6°C 99% 2.2 mph SE3.5 kmh SE 4.5 mph7.2 kmh 29.78 in1008.5 mb 0.00 in0.0 mm 0.00 in/hr0.0 mm/hr 48.61 in1234.7 mm
09:10 AM 73.0°F22.8°C 72.8°F22.7°C 99% 2.2 mph SE3.5 kmh SE 4.5 mph7.2 kmh 29.78 in1008.5 mb 0.00 in0.0 mm 0.00 in/hr0.0 mm/hr 48.61 in1234.7 mm
09:05 AM 73.0°F22.8°C 72.8°F22.7°C 99% 2.2 mph SE3.5 kmh SE 4.5 mph7.2 kmh 29.78 in1008.5 mb 0.00 in0.0 mm 0.00 in/hr0.0 mm/hr 48.61 in1234.7 mm
09:00 AM 73.0°F22.8°C 72.8°F22.7°C 99% Calm Calm 3.1 mph5.0 kmh 29.78 in1008.5 mb 0.00 in0.0 mm 0.00 in/hr0.0 mm/hr 48.61 in1234.7 mm
08:55 AM 72.5°F22.5°C 72.2°F22.3°C 99% 0.7 mph SE1.1 kmh SE 3.1 mph5.0 kmh 29.78 in1008.5 mb 0.00 in0.0 mm 0.00 in/hr0.0 mm/hr 48.61 in1234.7 mm
08:50 AM 72.1°F22.3°C 71.9°F22.2°C 99% 1.6 mph SE2.6 kmh SE 99.5 mph160.1 kmh 29.78 in1008.5 mb 0.00 in0.0 mm 0.00 in/hr0.0 mm/hr 48.61 in1234.7 mm
08:45 AM 71.8°F22.1°C 71.5°F21.9°C 99% 1.6 mph SE2.6 kmh SE 99.5 mph160.1 kmh 29.78 in1008.5 mb 0.00 in0.0 mm 0.00 in/hr0.0 mm/hr 48.61 in1234.7 mm
08:40 AM 71.2°F21.8°C 71.0°F21.7°C 99% Calm Calm 99.5 mph160.1 kmh 29.78 in1008.5 mb 0.00 in0.0 mm 0.00 in/hr0.0 mm/hr 48.61 in1234.7 mm
08:35 AM 71.2°F21.8°C 71.0°F21.7°C 99% 1.6 mph E2.6 kmh E 26.6 mph42.8 kmh 29.78 in1008.5 mb 0.00 in0.0 mm 0.00 in/hr0.0 mm/hr 48.61 in1234.7 mm
08:30 AM 70.7°F21.5°C 70.4°F21.3°C 99% 1.6 mph E2.6 kmh E 26.6 mph42.8 kmh 29.78 in1008.5 mb 0.00 in0.0 mm 0.00 in/hr0.0 mm/hr 48.61 in1234.7 mm
08:25 AM 70.9°F21.6°C 70.6°F21.4°C 99% 0.7 mph E1.1 kmh E 2.2 mph3.5 kmh 29.78 in1008.5 mb 0.00 in0.0 mm 0.00 in/hr0.0 mm/hr 48.61 in1234.7 mm
08:20 AM 71.1°F21.7°C 70.8°F21.6°C 99% Calm Calm 2.2 mph3.5 kmh 29.78 in1008.5 mb 0.00 in0.0 mm 0.00 in/hr0.0 mm/hr 48.61 in1234.7 mm
08:15 AM 70.3°F21.3°C 70.1°F21.2°C 99% Calm Calm 2.2 mph3.5 kmh 29.78 in1008.5 mb 0.00 in0.0 mm 0.00 in/hr0.0 mm/hr 48.61 in1234.7 mm
08:10 AM 69.3°F20.7°C 69.0°F20.6°C 99% Calm Calm 0.7 mph1.1 kmh 29.78 in1008.5 mb 0.00 in0.0 mm 0.00 in/hr0.0 mm/hr 48.61 in1234.7 mm
08:05 AM 67.1°F19.5°C 66.8°F19.3°C 99% Calm Calm 0.7 mph1.1 kmh 29.77 in1008.1 mb 0.00 in0.0 mm 0.00 in/hr0.0 mm/hr 48.61 in1234.7 mm
08:00 AM 67.1°F19.5°C 66.8°F19.3°C 99% Calm Calm 0.7 mph1.1 kmh 29.78 in1008.5 mb 0.00 in0.0 mm 0.00 in/hr0.0 mm/hr 48.61 in1234.7 mm
07:55 AM 66.7°F19.3°C 66.5°F19.2°C 99% Calm Calm 0.7 mph1.1 kmh 29.77 in1008.1 mb 0.00 in0.0 mm 0.00 in/hr0.0 mm/hr 48.61 in1234.7 mm
07:50 AM 65.8°F18.8°C 65.6°F18.7°C 99% Calm Calm 1.6 mph2.6 kmh 29.77 in1008.1 mb 0.00 in0.0 mm 0.00 in/hr0.0 mm/hr 48.61 in1234.7 mm
07:45 AM 65.8°F18.8°C 65.6°F18.7°C 99% Calm Calm 1.6 mph2.6 kmh 29.77 in1008.1 mb 0.00 in0.0 mm 0.00 in/hr0.0 mm/hr 48.61 in1234.7 mm
07:40 AM 65.5°F18.6°C 65.2°F18.4°C 99% Calm Calm 0.7 mph1.1 kmh 29.77 in1008.1 mb 0.00 in0.0 mm 0.00 in/hr0.0 mm/hr 48.61 in1234.7 mm
07:35 AM 65.1°F18.4°C 64.9°F18.3°C 99% Calm Calm -- 29.77 in1008.1 mb 0.00 in0.0 mm 0.00 in/hr0.0 mm/hr 48.61 in1234.7 mm
07:30 AM 65.1°F18.4°C 64.9°F18.3°C 99% Calm Calm -- 29.77 in1008.1 mb 0.00 in0.0 mm 0.00 in/hr0.0 mm/hr 48.61 in1234.7 mm
07:25 AM 65.1°F18.4°C 64.9°F18.3°C 99% Calm Calm 0.7 mph1.1 kmh 29.77 in1008.1 mb 0.00 in0.0 mm 0.00 in/hr0.0 mm/hr 48.61 in1234.7 mm
07:20 AM 64.9°F18.3°C 64.7°F18.2°C 99% Calm Calm 0.7 mph1.1 kmh 29.77 in1008.1 mb 0.00 in0.0 mm 0.00 in/hr0.0 mm/hr 48.61 in1234.7 mm
07:15 AM 64.9°F18.3°C 64.7°F18.2°C 99% Calm Calm -- 29.76 in1007.8 mb 0.00 in0.0 mm 0.00 in/hr0.0 mm/hr 48.61 in1234.7 mm
07:10 AM 64.9°F18.3°C 64.7°F18.2°C 99% Calm Calm -- 29.76 in1007.8 mb 0.00 in0.0 mm 0.00 in/hr0.0 mm/hr 48.61 in1234.7 mm
07:05 AM 64.9°F18.3°C 64.7°F18.2°C 99% Calm Calm -- 29.76 in1007.8 mb 0.00 in0.0 mm 0.00 in/hr0.0 mm/hr 48.61 in1234.7 mm
07:00 AM 64.9°F18.3°C 64.7°F18.2°C 99% Calm Calm -- 29.76 in1007.8 mb 0.00 in0.0 mm 0.00 in/hr0.0 mm/hr 48.61 in1234.7 mm
06:55 AM 65.3°F18.5°C 65.0°F18.3°C 99% Calm Calm -- 29.76 in1007.8 mb 0.00 in0.0 mm 0.00 in/hr0.0 mm/hr 48.61 in1234.7 mm
06:50 AM 65.7°F18.7°C 65.4°F18.6°C 99% Calm Calm -- 29.76 in1007.8 mb 24.21 in614.9 mm 290.52 in/hr7379.2 mm/hr 48.61 in1234.7 mm
06:45 AM 65.8°F18.8°C 65.6°F18.7°C 99% Calm Calm -- 29.75 in1007.5 mb 0.00 in0.0 mm 0.00 in/hr0.0 mm/hr 24.40 in619.8 mm
06:40 AM 66.0°F18.9°C 65.8°F18.8°C 99% Calm Calm -- 29.75 in1007.5 mb 0.00 in0.0 mm 0.00 in/hr0.0 mm/hr 24.40 in619.8 mm
06:35 AM 66.0°F18.9°C 65.8°F18.8°C 99% Calm Calm -- 29.75 in1007.5 mb 0.00 in0.0 mm 0.00 in/hr0.0 mm/hr 24.40 in619.8 mm
06:30 AM 66.0°F18.9°C 65.8°F18.8°C 99% Calm Calm -- 29.75 in1007.5 mb 0.00 in0.0 mm 0.00 in/hr0.0 mm/hr 24.40 in619.8 mm
06:25 AM 65.8°F18.8°C 65.6°F18.7°C 99% Calm Calm -- 29.75 in1007.5 mb 0.00 in0.0 mm 0.00 in/hr0.0 mm/hr 24.40 in619.8 mm
06:20 AM 65.8°F18.8°C 65.6°F18.7°C 99% Calm Calm -- 29.75 in1007.5 mb 0.00 in0.0 mm 0.00 in/hr0.0 mm/hr 24.40 in619.8 mm
06:15 AM 65.8°F18.8°C 65.6°F18.7°C 99% Calm Calm -- 29.75 in1007.5 mb 0.00 in0.0 mm 0.00 in/hr0.0 mm/hr 24.40 in619.8 mm
06:10 AM 65.8°F18.8°C 65.6°F18.7°C 99% Calm Calm -- 29.75 in1007.5 mb 0.00 in0.0 mm 0.00 in/hr0.0 mm/hr 24.40 in619.8 mm
06:05 AM 65.8°F18.8°C 65.6°F18.7°C 99% Calm Calm -- 29.75 in1007.5 mb 0.00 in0.0 mm 0.00 in/hr0.0 mm/hr 24.40 in619.8 mm
06:00 AM 65.8°F18.8°C 65.6°F18.7°C 99% Calm Calm 122.0 mph196.3 kmh 29.75 in1007.5 mb 0.00 in0.0 mm 0.00 in/hr0.0 mm/hr 24.40 in619.8 mm
05:55 AM 65.8°F18.8°C 65.6°F18.7°C 99% Calm Calm 122.0 mph196.3 kmh 29.75 in1007.5 mb 0.00 in0.0 mm 0.00 in/hr0.0 mm/hr 24.40 in619.8 mm
05:50 AM 66.0°F18.9°C 65.8°F18.8°C 99% 0.7 mph NE1.1 kmh NE 122.0 mph196.3 kmh 29.75 in1007.5 mb 0.00 in0.0 mm 0.00 in/hr0.0 mm/hr 24.40 in619.8 mm
05:45 AM 66.0°F18.9°C 65.8°F18.8°C 99% Calm Calm -- 29.74 in1007.1 mb 0.00 in0.0 mm 0.00 in/hr0.0 mm/hr 24.40 in619.8 mm
05:40 AM 66.4°F19.1°C 66.1°F18.9°C 99% Calm Calm -- 29.74 in1007.1 mb 0.00 in0.0 mm 0.00 in/hr0.0 mm/hr 24.40 in619.8 mm
05:35 AM 66.6°F19.2°C 66.3°F19.1°C 99% Calm Calm -- 29.74 in1007.1 mb 0.00 in0.0 mm 0.00 in/hr0.0 mm/hr 24.40 in619.8 mm
05:30 AM 66.6°F19.2°C 66.3°F19.1°C 99% Calm Calm 80.5 mph129.6 kmh 29.74 in1007.1 mb 0.00 in0.0 mm 0.00 in/hr0.0 mm/hr 24.40 in619.8 mm
05:25 AM 66.7°F19.3°C 66.5°F19.2°C 99% Calm Calm 80.5 mph129.6 kmh 29.74 in1007.1 mb 0.00 in0.0 mm 0.00 in/hr0.0 mm/hr 24.40 in619.8 mm
05:20 AM 66.7°F19.3°C 66.5°F19.2°C 99% Calm Calm 0.7 mph1.1 kmh 29.74 in1007.1 mb 0.00 in0.0 mm 0.00 in/hr0.0 mm/hr 24.40 in619.8 mm
05:15 AM 66.7°F19.3°C 66.5°F19.2°C 99% Calm Calm -- 29.74 in1007.1 mb 0.00 in0.0 mm 0.00 in/hr0.0 mm/hr 24.40 in619.8 mm
05:10 AM 66.7°F19.3°C 66.5°F19.2°C 99% Calm Calm -- 29.73 in1006.8 mb 0.00 in0.0 mm 0.00 in/hr0.0 mm/hr 24.40 in619.8 mm
05:05 AM 66.7°F19.3°C 66.5°F19.2°C 99% Calm Calm -- 29.73 in1006.8 mb 0.00 in0.0 mm 0.00 in/hr0.0 mm/hr 24.40 in619.8 mm
05:00 AM 66.7°F19.3°C 66.5°F19.2°C 99% Calm Calm -- 29.73 in1006.8 mb 0.00 in0.0 mm 0.00 in/hr0.0 mm/hr 24.40 in619.8 mm
04:55 AM 66.7°F19.3°C 66.5°F19.2°C 99% Calm Calm -- 29.73 in1006.8 mb 0.00 in0.0 mm 0.00 in/hr0.0 mm/hr 24.40 in619.8 mm
04:50 AM 66.7°F19.3°C 66.5°F19.2°C 99% Calm Calm -- 29.73 in1006.8 mb 0.00 in0.0 mm 0.00 in/hr0.0 mm/hr 24.40 in619.8 mm
04:45 AM 66.7°F19.3°C 66.5°F19.2°C 99% Calm Calm -- 29.73 in1006.8 mb 0.00 in0.0 mm 0.00 in/hr0.0 mm/hr 24.40 in619.8 mm
04:40 AM 66.7°F19.3°C 66.5°F19.2°C 99% Calm Calm -- 29.73 in1006.8 mb 0.00 in0.0 mm 0.00 in/hr0.0 mm/hr 24.40 in619.8 mm
04:35 AM 66.9°F19.4°C 66.7°F19.3°C 99% Calm Calm -- 29.73 in1006.8 mb 0.00 in0.0 mm 0.00 in/hr0.0 mm/hr 24.40 in619.8 mm
04:30 AM 66.9°F19.4°C 66.7°F19.3°C 99% Calm Calm 0.7 mph1.1 kmh 29.72 in1006.4 mb 0.00 in0.0 mm 0.00 in/hr0.0 mm/hr 24.40 in619.8 mm
04:25 AM 66.9°F19.4°C 66.7°F19.3°C 99% Calm Calm 0.7 mph1.1 kmh 29.72 in1006.4 mb 0.00 in0.0 mm 0.00 in/hr0.0 mm/hr 24.40 in619.8 mm
04:20 AM 66.9°F19.4°C 66.7°F19.3°C 99% Calm Calm 0.7 mph1.1 kmh 29.72 in1006.4 mb 0.00 in0.0 mm 0.00 in/hr0.0 mm/hr 24.40 in619.8 mm
04:15 AM 66.9°F19.4°C 66.7°F19.3°C 99% Calm Calm 0.7 mph1.1 kmh 29.72 in1006.4 mb 0.00 in0.0 mm 0.00 in/hr0.0 mm/hr 24.40 in619.8 mm
04:10 AM 67.1°F19.5°C 66.8°F19.3°C 99% Calm Calm 0.7 mph1.1 kmh 29.71 in1006.1 mb 0.00 in0.0 mm 0.00 in/hr0.0 mm/hr 24.40 in619.8 mm
04:05 AM 67.1°F19.5°C 66.8°F19.3°C 99% Calm Calm 0.7 mph1.1 kmh 29.71 in1006.1 mb 0.00 in0.0 mm 0.00 in/hr0.0 mm/hr 24.40 in619.8 mm
04:00 AM 66.9°F19.4°C 66.7°F19.3°C 99% Calm Calm -- 29.71 in1006.1 mb 0.00 in0.0 mm 0.00 in/hr0.0 mm/hr 24.40 in619.8 mm
03:55 AM 67.3°F19.6°C 67.0°F19.4°C 99% Calm Calm -- 29.71 in1006.1 mb 0.00 in0.0 mm 0.00 in/hr0.0 mm/hr 24.40 in619.8 mm
03:50 AM 67.1°F19.5°C 66.8°F19.3°C 99% Calm Calm -- 29.71 in1006.1 mb 0.00 in0.0 mm 0.00 in/hr0.0 mm/hr 24.40 in619.8 mm
03:45 AM 67.1°F19.5°C 66.8°F19.3°C 99% Calm Calm -- 29.70 in1005.8 mb 0.00 in0.0 mm 0.00 in/hr0.0 mm/hr 24.40 in619.8 mm
03:40 AM 67.1°F19.5°C 66.8°F19.3°C 99% Calm Calm -- 29.70 in1005.8 mb 0.00 in0.0 mm 0.00 in/hr0.0 mm/hr 24.40 in619.8 mm
03:35 AM 67.3°F19.6°C 67.0°F19.4°C 99% Calm Calm -- 29.70 in1005.8 mb 0.00 in0.0 mm 0.00 in/hr0.0 mm/hr 24.40 in619.8 mm
03:30 AM 67.5°F19.7°C 67.2°F19.6°C 99% Calm Calm -- 29.70 in1005.8 mb 0.00 in0.0 mm 0.00 in/hr0.0 mm/hr 24.40 in619.8 mm
03:25 AM 67.6°F19.8°C 67.4°F19.7°C 99% Calm Calm -- 29.70 in1005.8 mb 0.00 in0.0 mm 0.00 in/hr0.0 mm/hr 24.40 in619.8 mm
03:20 AM 67.8°F19.9°C 67.6°F19.8°C 99% Calm Calm -- 29.70 in1005.8 mb 0.00 in0.0 mm 0.00 in/hr0.0 mm/hr 24.40 in619.8 mm
03:15 AM 68.0°F20.0°C 67.7°F19.8°C 99% Calm Calm -- 29.69 in1005.4 mb 0.00 in0.0 mm 0.00 in/hr0.0 mm/hr 24.40 in619.8 mm
03:10 AM 68.2°F20.1°C 67.9°F19.9°C 99% Calm Calm -- 29.69 in1005.4 mb 0.00 in0.0 mm 0.00 in/hr0.0 mm/hr 24.40 in619.8 mm
03:05 AM 68.2°F20.1°C 67.9°F19.9°C 99% Calm Calm -- 29.69 in1005.4 mb 0.00 in0.0 mm 0.00 in/hr0.0 mm/hr 24.40 in619.8 mm
03:00 AM 68.2°F20.1°C 67.9°F19.9°C 99% Calm Calm -- 29.69 in1005.4 mb 0.00 in0.0 mm 0.00 in/hr0.0 mm/hr 24.40 in619.8 mm
02:55 AM 68.2°F20.1°C 67.9°F19.9°C 99% Calm Calm -- 29.69 in1005.4 mb 0.00 in0.0 mm 0.00 in/hr0.0 mm/hr 24.40 in619.8 mm
02:50 AM 68.2°F20.1°C 67.9°F19.9°C 99% Calm Calm -- 29.68 in1005.1 mb 0.00 in0.0 mm 0.00 in/hr0.0 mm/hr 24.40 in619.8 mm
02:45 AM 68.2°F20.1°C 67.9°F19.9°C 99% Calm Calm 0.7 mph1.1 kmh 29.68 in1005.1 mb 0.00 in0.0 mm 0.00 in/hr0.0 mm/hr 24.40 in619.8 mm
02:40 AM 68.0°F20.0°C 67.7°F19.8°C 99% Calm Calm 0.7 mph1.1 kmh 29.68 in1005.1 mb 0.00 in0.0 mm 0.00 in/hr0.0 mm/hr 24.40 in619.8 mm
02:35 AM 68.2°F20.1°C 67.9°F19.9°C 99% Calm Calm 0.7 mph1.1 kmh 29.68 in1005.1 mb 0.00 in0.0 mm 0.00 in/hr0.0 mm/hr 24.40 in619.8 mm
02:30 AM 68.5°F20.3°C 68.3°F20.2°C 99% Calm Calm -- 29.68 in1005.1 mb 0.00 in0.0 mm 0.00 in/hr0.0 mm/hr 24.40 in619.8 mm
02:25 AM 68.7°F20.4°C 68.5°F20.3°C 99% Calm Calm 0.7 mph1.1 kmh 29.68 in1005.1 mb 24.40 in619.8 mm 292.80 in/hr7437.1 mm/hr 24.40 in619.8 mm
02:20 AM 68.9°F20.5°C 68.6°F20.3°C 99% Calm Calm 0.7 mph1.1 kmh 29.68 in1005.1 mb 0.00 in0.0 mm 0.00 in/hr0.0 mm/hr 0.00 in0.0 mm
02:15 AM 68.9°F20.5°C 68.6°F20.3°C 99% Calm Calm 0.7 mph1.1 kmh 29.68 in1005.1 mb 0.00 in0.0 mm 0.00 in/hr0.0 mm/hr 0.00 in0.0 mm
02:10 AM 68.7°F20.4°C 68.5°F20.3°C 99% Calm Calm -- 29.68 in1005.1 mb 0.00 in0.0 mm 0.00 in/hr0.0 mm/hr 0.00 in0.0 mm
02:05 AM 68.7°F20.4°C 68.5°F20.3°C 99% Calm Calm -- 29.67 in1004.7 mb 0.00 in0.0 mm 0.00 in/hr0.0 mm/hr 0.00 in0.0 mm
02:00 AM 68.7°F20.4°C 68.5°F20.3°C 99% Calm Calm -- 29.67 in1004.7 mb 0.00 in0.0 mm 0.00 in/hr0.0 mm/hr 0.00 in0.0 mm
01:55 AM 68.9°F20.5°C 68.6°F20.3°C 99% Calm Calm 0.7 mph1.1 kmh 29.67 in1004.7 mb 0.00 in0.0 mm 0.00 in/hr0.0 mm/hr 0.00 in0.0 mm
01:50 AM 68.9°F20.5°C 68.6°F20.3°C 99% Calm Calm 0.7 mph1.1 kmh 29.67 in1004.7 mb 0.00 in0.0 mm 0.00 in/hr0.0 mm/hr 0.00 in0.0 mm
01:45 AM 69.1°F20.6°C 68.8°F20.4°C 99% Calm Calm 0.7 mph1.1 kmh 29.66 in1004.4 mb 0.00 in0.0 mm 0.00 in/hr0.0 mm/hr 0.00 in0.0 mm
01:40 AM 69.1°F20.6°C 68.8°F20.4°C 99% Calm Calm -- 29.66 in1004.4 mb 0.00 in0.0 mm 0.00 in/hr0.0 mm/hr 0.00 in0.0 mm
01:35 AM 69.1°F20.6°C 68.8°F20.4°C 99% Calm Calm -- 29.66 in1004.4 mb 0.00 in0.0 mm 0.00 in/hr0.0 mm/hr 0.00 in0.0 mm
01:30 AM 69.1°F20.6°C 68.8°F20.4°C 99% Calm Calm -- 29.66 in1004.4 mb 0.00 in0.0 mm 0.00 in/hr0.0 mm/hr 0.00 in0.0 mm
01:25 AM 69.3°F20.7°C 68.1°F20.1°C 96% Calm Calm 0.7 mph1.1 kmh 29.66 in1004.4 mb 0.00 in0.0 mm 0.00 in/hr0.0 mm/hr 0.00 in0.0 mm
01:20 AM 69.3°F20.7°C 69.0°F20.6°C 99% Calm Calm 0.7 mph1.1 kmh 29.66 in1004.4 mb 0.00 in0.0 mm 0.00 in/hr0.0 mm/hr 0.00 in0.0 mm
01:15 AM 69.3°F20.7°C 69.0°F20.6°C 99% Calm Calm -- 29.65 in1004.1 mb 0.00 in0.0 mm 0.00 in/hr0.0 mm/hr 0.00 in0.0 mm
01:10 AM 69.6°F20.9°C 69.4°F20.8°C 99% Calm Calm -- 29.65 in1004.1 mb 0.00 in0.0 mm 0.00 in/hr0.0 mm/hr 0.00 in0.0 mm
01:05 AM 69.6°F20.9°C 69.4°F20.8°C 99% Calm Calm -- 29.65 in1004.1 mb 0.00 in0.0 mm 0.00 in/hr0.0 mm/hr 0.00 in0.0 mm
01:00 AM 69.6°F20.9°C 69.4°F20.8°C 99% Calm Calm 0.7 mph1.1 kmh 29.65 in1004.1 mb 0.00 in0.0 mm 0.00 in/hr0.0 mm/hr 0.00 in0.0 mm
12:55 AM 69.4°F20.8°C 69.2°F20.7°C 99% Calm Calm 0.7 mph1.1 kmh 29.65 in1004.1 mb 0.00 in0.0 mm 0.00 in/hr0.0 mm/hr 0.00 in0.0 mm
12:50 AM 69.4°F20.8°C 69.2°F20.7°C 99% Calm Calm 0.7 mph1.1 kmh 29.64 in1003.7 mb 0.00 in0.0 mm 0.00 in/hr0.0 mm/hr 0.00 in0.0 mm
12:45 AM 69.3°F20.7°C 69.0°F20.6°C 99% Calm Calm 0.7 mph1.1 kmh 29.64 in1003.7 mb 0.00 in0.0 mm 0.00 in/hr0.0 mm/hr 0.00 in0.0 mm
12:40 AM 69.3°F20.7°C 69.0°F20.6°C 99% Calm Calm 0.7 mph1.1 kmh 29.64 in1003.7 mb 0.00 in0.0 mm 0.00 in/hr0.0 mm/hr 0.00 in0.0 mm
12:35 AM 69.3°F20.7°C 69.0°F20.6°C 99% Calm Calm 0.7 mph1.1 kmh 29.64 in1003.7 mb 0.00 in0.0 mm 0.00 in/hr0.0 mm/hr 0.00 in0.0 mm
12:30 AM 69.8°F21.0°C 69.5°F20.8°C 99% Calm Calm 2.2 mph3.5 kmh 29.64 in1003.7 mb 0.00 in0.0 mm 0.00 in/hr0.0 mm/hr 0.00 in0.0 mm
12:25 AM 70.0°F21.1°C 69.7°F20.9°C 99% Calm Calm 2.2 mph3.5 kmh 29.64 in1003.7 mb 0.00 in0.0 mm 0.00 in/hr0.0 mm/hr 0.00 in0.0 mm
12:20 AM 70.2°F21.2°C 69.9°F21.1°C 99% 0.7 mph N1.1 kmh N 2.2 mph3.5 kmh 29.64 in1003.7 mb 0.00 in0.0 mm 0.00 in/hr0.0 mm/hr 0.00 in0.0 mm
12:15 AM 70.2°F21.2°C 69.9°F21.1°C 99% Calm Calm 0.7 mph1.1 kmh 29.63 in1003.4 mb 0.00 in0.0 mm 0.00 in/hr0.0 mm/hr 0.00 in0.0 mm
12:10 AM 70.2°F21.2°C 69.9°F21.1°C 99% Calm Calm 0.7 mph1.1 kmh 29.63 in1003.4 mb 0.00 in0.0 mm 0.00 in/hr0.0 mm/hr 0.00 in0.0 mm
12:05 AM 70.3°F21.3°C 70.1°F21.2°C 99% Calm Calm 0.7 mph1.1 kmh 29.63 in1003.4 mb 0.00 in0.0 mm 0.00 in/hr0.0 mm/hr 0.00 in0.0 mm
12:00 AM 70.3°F21.3°C 70.1°F21.2°C 99% Calm Calm 0.7 mph1.1 kmh 29.63 in1003.4 mb 0.00 in0.0 mm 0.00 in/hr0.0 mm/hr 0.00 in0.0 mm